Time;durP1;ratioP1;P1;durP2;ratioP2;P2;SDS_P1;SDS_P2;PMS_P1;PMS_P2;Temp;Humidity;BMP_temperature;BMP_pressure;BME280_temperature;BME280_humidity;BME280_pressure;Samples;Min_cycle;Max_cycle;Signal;HPM_P1;HPM_P2
2023/08/21 00:00:59;;;;;;;8.55;3.53;;;;;;;;;;5034054;28;20017;-91
2023/08/21 00:03:25;;;;;;;3.78;2.60;;;;;;;;;;5034726;28;20404;-91
2023/08/21 00:05:52;;;;;;;5.30;2.70;;;;;;;;;;5035132;28;20045;-92
2023/08/21 00:08:18;;;;;;;6.10;2.72;;;;;;;;;;5035047;28;20037;-91
2023/08/21 00:10:44;;;;;;;4.45;2.45;;;;;;;;;;5034596;28;20016;-91
2023/08/21 00:13:10;;;;;;;6.00;2.72;;;;;;;;;;5035103;28;20406;-90
2023/08/21 00:15:38;;;;;;;4.15;2.97;;;23.80;88.40;;;;;;5035124;28;20022;-91
2023/08/21 00:18:04;;;;;;;7.55;2.55;;;;;;;;;;5035081;28;20026;-90
2023/08/21 00:20:30;;;;;;;5.28;2.92;;;;;;;;;;5051630;28;20514;-90
2023/08/21 00:22:56;;;;;;;5.57;3.05;;;;;;;;;;5034217;28;20402;-91
2023/08/21 00:25:23;;;;;;;6.65;2.50;;;;;;;;;;5035539;28;20033;-90
2023/08/21 00:27:49;;;;;;;3.50;2.97;;;;;;;;;;5034789;28;20029;-92
2023/08/21 00:30:15;;;;;;;8.40;3.23;;;;;;;;;;5035088;28;20021;-91
2023/08/21 00:32:41;;;;;;;9.88;4.70;;;23.80;88.90;;;;;;5034112;28;20097;-91
2023/08/21 00:35:08;;;;;;;5.80;2.55;;;;;;;;;;5034538;28;20103;-91
2023/08/21 00:37:34;;;;;;;5.77;2.50;;;;;;;;;;5032851;28;20021;-91
2023/08/21 00:40:00;;;;;;;5.43;2.50;;;;;;;;;;5034784;28;20379;-91
2023/08/21 00:42:26;;;;;;;3.13;2.65;;;;;;;;;;5034730;28;20028;-91
2023/08/21 00:44:52;;;;;;;5.27;2.20;;;23.70;92.60;;;;;;5034401;28;20025;-92
2023/08/21 00:47:19;;;;;;;6.22;2.20;;;;;;;;;;5033444;28;20113;-91
2023/08/21 00:49:45;;;;;;;4.60;2.47;;;;;;;;;;5036866;28;20486;-91
2023/08/21 00:52:14;;;;;;;4.50;2.70;;;23.60;90.50;;;;;;5031996;28;20426;-91
2023/08/21 00:54:40;;;;;;;4.60;2.70;;;;;;;;;;5031090;28;20026;-90
2023/08/21 00:57:06;;;;;;;6.90;3.17;;;;;;;;;;5032782;28;20502;-91
2023/08/21 00:59:32;;;;;;;8.15;2.88;;;;;;;;;;5040739;28;20448;-91
2023/08/21 01:01:58;;;;;;;4.63;2.90;;;;;;;;;;5051831;28;20493;-91
2023/08/21 01:04:24;;;;;;;13.88;3.40;;;;;;;;;;5033442;28;20097;-91
2023/08/21 01:06:50;;;;;;;6.30;3.03;;;;;;;;;;5047953;28;20030;-90
2023/08/21 01:09:33;;;;;;;4.27;2.60;;;23.40;91.70;;;;;;5036569;28;20080;-89
2023/08/21 01:12:30;;;;;;;5.20;3.33;;;23.40;92.10;;;;;;5030682;28;20032;-92
2023/08/21 01:14:55;;;;;;;;;;;23.40;92.70;;;;;;5034707;28;20089;-91
2023/08/21 01:17:23;;;;;;;6.53;2.95;;;23.40;92.10;;;;;;5048895;28;19944;-91
2023/08/21 01:19:50;;;;;;;3.85;3.00;;;23.40;92.00;;;;;;5032717;28;20471;-89
2023/08/21 01:22:16;;;;;;;4.80;2.72;;;;;;;;;;5032324;28;20371;-90
2023/08/21 01:24:42;;;;;;;4.53;2.72;;;;;;;;;;5032795;28;20052;-89
2023/08/21 01:27:09;;;;;;;8.40;3.22;;;23.00;93.40;;;;;;5032616;28;20504;-91
2023/08/21 01:29:35;;;;;;;4.10;3.05;;;;;;;;;;5032114;28;20029;-91
2023/08/21 01:32:31;;;;;;;4.07;2.88;;;23.10;99.30;;;;;;5032555;28;20436;-90
2023/08/21 01:34:57;;;;;;;8.30;3.45;;;;;;;;;;5021208;28;20041;-91
2023/08/21 01:37:25;;;;;;;5.10;2.90;;;23.20;92.30;;;;;;5046702;28;20021;-90
2023/08/21 01:39:51;;;;;;;16.23;3.45;;;;;;;;;;5051614;28;20067;-91
2023/08/21 01:42:17;;;;;;;7.32;3.80;;;;;;;;;;5050525;28;20037;-91
2023/08/21 01:44:45;;;;;;;5.63;3.13;;;;;;;;;;5043047;28;20556;-90
2023/08/21 01:47:12;;;;;;;8.27;3.00;;;;;;;;;;5047336;28;20041;-91
2023/08/21 01:49:38;;;;;;;4.88;3.35;;;;;;;;;;5041031;28;20037;-91
2023/08/21 01:52:03;;;;;;;7.85;3.28;;;22.70;99.90;;;;;;5038308;28;20132;-91
2023/08/21 01:54:29;;;;;;;3.30;2.60;;;;;;;;;;5051221;28;20032;-91
2023/08/21 01:56:56;;;;;;;3.70;2.53;;;;;;;;;;5051607;28;20552;-91
2023/08/21 01:59:24;;;;;;;5.60;2.90;;;22.70;96.10;;;;;;5042923;28;20033;-91
2023/08/21 02:01:49;;;;;;;;;;;22.90;95.40;;;;;;5032485;28;20025;-92
2023/08/21 02:04:15;;;;;;;4.45;2.90;;;;;;;;;;5031980;28;19909;-92
2023/08/21 02:06:41;;;;;;;8.77;2.45;;;;;;;;;;5032525;28;20030;-91
2023/08/21 02:09:07;;;;;;;2.90;2.35;;;;;;;;;;5032516;28;20022;-92
2023/08/21 02:11:33;;;;;;;7.22;3.58;;;;;;;;;;5032418;28;20043;-91
2023/08/21 02:13:59;;;;;;;7.57;2.95;;;;;;;;;;5032596;28;20031;-91
2023/08/21 02:16:25;;;;;;;3.72;2.90;;;;;;;;;;5032604;28;20454;-91
2023/08/21 02:18:51;;;;;;;4.90;2.78;;;;;;;;;;5032937;28;20033;-91
2023/08/21 02:21:17;;;;;;;5.00;3.47;;;;;;;;;;5031953;28;20033;-91
2023/08/21 02:23:44;;;;;;;14.57;3.92;;;;;;;;;;5047862;28;20494;-90
2023/08/21 02:26:10;;;;;;;6.10;2.80;;;;;;;;;;5032220;28;20080;-91
2023/08/21 02:28:36;;;;;;;6.47;3.10;;;;;;;;;;5032437;28;20745;-91
2023/08/21 02:31:01;;;;;;;6.57;3.53;;;22.80;99.90;;;;;;5032820;28;20021;-91
2023/08/21 02:33:27;;;;;;;6.60;3.40;;;;;;;;;;5032024;28;20407;-91
2023/08/21 02:35:53;;;;;;;7.65;3.75;;;22.70;99.90;;;;;;5031879;28;20474;-90
2023/08/21 02:38:19;;;;;;;3.38;2.88;;;;;;;;;;5032081;28;20045;-91
2023/08/21 02:40:44;;;;;;;6.93;3.45;;;22.70;99.90;;;;;;5031774;28;20109;-91
2023/08/21 02:43:10;;;;;;;6.53;3.58;;;22.50;99.90;;;;;;5032073;28;20021;-92
2023/08/21 02:45:36;;;;;;;7.07;2.65;;;;;;;;;;5046865;28;20017;-91
2023/08/21 02:48:02;;;;;;;7.38;3.00;;;;;;;;;;5036456;28;20214;-91
2023/08/21 02:50:28;;;;;;;4.93;2.63;;;;;;;;;;5037076;28;20027;-92
2023/08/21 02:52:54;;;;;;;9.60;3.35;;;;;;;;;;5035331;28;20100;-91
2023/08/21 02:55:20;;;;;;;5.60;3.33;;;22.70;98.70;;;;;;5036917;28;20411;-91
2023/08/21 02:57:46;;;;;;;7.60;3.00;;;;;;;;;;5037116;28;20060;-91
2023/08/21 03:00:12;;;;;;;8.07;3.28;;;;;;;;;;5036847;28;20481;-89
2023/08/21 03:02:42;;;;;;;5.03;2.83;;;;;;;;;;5046592;28;20121;-91
2023/08/21 03:05:09;;;;;;;5.13;3.08;;;;;;;;;;5035631;28;20029;-90
2023/08/21 03:07:35;;;;;;;4.95;2.83;;;;;;;;;;5035157;28;20022;-91
2023/08/21 03:10:04;;;;;;;4.70;3.22;;;;;;;;;;5034944;28;20060;-91
2023/08/21 03:12:30;;;;;;;4.57;2.75;;;;;;;;;;5035016;28;20032;-91
2023/08/21 03:14:55;;;;;;;8.77;3.20;;;22.20;99.90;;;;;;5029262;28;20022;-92
2023/08/21 03:17:21;;;;;;;5.30;3.72;;;;;;;;;;5042785;28;20021;-91
2023/08/21 03:19:47;;;;;;;4.43;2.92;;;;;;;;;;5053264;28;20071;-91
2023/08/21 03:22:14;;;;;;;4.43;3.15;;;;;;;;;;5054172;28;20125;-90
2023/08/21 03:24:39;;;;;;;8.80;3.22;;;;;;;;;;5052693;28;20460;-90
2023/08/21 03:27:05;;;;;;;6.68;3.28;;;21.80;99.40;;;;;;5037217;28;20029;-92
2023/08/21 03:29:31;;;;;;;4.57;3.45;;;;;;;;;;5047469;28;20084;-91
2023/08/21 03:31:58;;;;;;;5.65;3.45;;;;;;;;;;5044255;28;20096;-90
2023/08/21 03:34:24;;;;;;;7.13;3.25;;;;;;;;;;5040671;28;20052;-90
2023/08/21 03:36:50;;;;;;;6.45;4.05;;;;;;;;;;5043534;28;20092;-90
2023/08/21 03:39:16;;;;;;;4.07;2.88;;;;;;;;;;5034042;28;20034;-92
2023/08/21 03:41:42;;;;;;;7.70;3.50;;;;;;;;;;5043584;28;20060;-91
2023/08/21 03:44:08;;;;;;;7.82;3.42;;;;;;;;;;5036732;28;20498;-91
2023/08/21 03:46:34;;;;;;;10.25;4.45;;;22.10;99.90;;;;;;5044618;28;20029;-91
2023/08/21 03:48:59;;;;;;;5.57;3.13;;;22.60;99.90;;;;;;5039388;28;20024;-91
2023/08/21 03:51:25;;;;;;;3.67;3.00;;;22.20;99.90;;;;;;5053963;28;20107;-91
2023/08/21 03:53:51;;;;;;;7.65;3.40;;;;;;;;;;5049087;28;20079;-91
2023/08/21 03:56:16;;;;;;;8.98;3.80;;;22.40;99.90;;;;;;5033497;28;20597;-91
2023/08/21 03:58:42;;;;;;;3.22;2.40;;;;;;;;;;5046251;28;20068;-91
2023/08/21 04:01:08;;;;;;;8.50;3.55;;;;;;;;;;5033766;28;20029;-92
2023/08/21 04:03:34;;;;;;;9.38;3.30;;;;;;;;;;5034096;28;20116;-90
2023/08/21 04:06:00;;;;;;;13.05;3.20;;;;;;;;;;5034106;28;20399;-91
2023/08/21 04:08:26;;;;;;;6.47;3.17;;;;;;;;;;5049496;28;20031;-91
2023/08/21 04:10:53;;;;;;;10.43;3.67;;;;;;;;;;5049697;28;20025;-91
2023/08/21 04:13:19;;;;;;;6.60;3.20;;;22.00;99.90;;;;;;5034320;28;20383;-90
2023/08/21 04:15:45;;;;;;;4.60;2.65;;;22.00;99.90;;;;;;5033401;28;20036;-91
2023/08/21 04:18:11;;;;;;;8.63;3.47;;;;;;;;;;5034321;28;20104;-91
2023/08/21 04:20:38;;;;;;;5.82;3.20;;;;;;;;;;5034143;28;20033;-91
2023/08/21 04:23:04;;;;;;;6.23;4.23;;;;;;;;;;5034327;28;20024;-92
2023/08/21 04:25:30;;;;;;;6.20;3.55;;;;;;;;;;5034007;28;20021;-90
2023/08/21 04:27:56;;;;;;;9.05;2.80;;;22.10;99.90;;;;;;5034639;28;20375;-91
2023/08/21 04:30:22;;;;;;;4.72;3.03;;;;;;;;;;5033722;28;20017;-91
2023/08/21 04:32:48;;;;;;;4.45;2.75;;;22.10;99.10;;;;;;5033892;28;20041;-91
2023/08/21 04:35:14;;;;;;;5.90;2.97;;;;;;;;;;5034078;28;20029;-90
2023/08/21 04:37:45;;;;;;;8.63;3.22;;;22.10;99.50;;;;;;5035760;28;20005;-91
2023/08/21 04:40:12;;;;;;;5.78;2.95;;;;;;;;;;5034039;28;20041;-92
2023/08/21 04:42:38;;;;;;;8.85;3.85;;;;;;;;;;5034334;28;20487;-91
2023/08/21 04:45:05;;;;;;;7.68;3.00;;;21.90;99.90;;;;;;5034456;28;20079;-91
2023/08/21 04:47:31;;;;;;;7.05;4.43;;;;;;;;;;5035591;28;20018;-91
2023/08/21 04:49:57;;;;;;;11.27;4.60;;;;;;;;;;5033224;28;20033;-92
2023/08/21 04:52:24;;;;;;;8.90;4.25;;;21.70;99.90;;;;;;5033273;28;20029;-91
2023/08/21 04:54:50;;;;;;;5.03;2.92;;;;;;;;;;5033839;28;20040;-90
2023/08/21 04:57:17;;;;;;;6.93;2.80;;;;;;;;;;5035049;28;20021;-91
2023/08/21 04:59:43;;;;;;;9.17;3.87;;;;;;;;;;5033057;28;20033;-91
2023/08/21 05:02:10;;;;;;;6.57;3.43;;;;;;;;;;5038126;28;20024;-90
2023/08/21 05:04:38;;;;;;;4.78;3.08;;;21.30;99.90;;;;;;5041471;28;20026;-90
2023/08/21 05:07:04;;;;;;;5.30;3.65;;;;;;;;;;5031096;28;20029;-91
2023/08/21 05:09:31;;;;;;;7.88;3.10;;;;;;;;;;5032246;28;20016;-91
2023/08/21 05:11:57;;;;;;;5.63;3.37;;;;;;;;;;5034142;28;20018;-91
2023/08/21 05:14:23;;;;;;;7.28;3.28;;;22.10;99.90;;;;;;5032728;28;20033;-91
2023/08/21 05:16:49;;;;;;;6.25;2.88;;;;;;;;;;5034241;28;20024;-92
2023/08/21 05:19:15;;;;;;;7.18;2.53;;;;;;;;;;5041027;28;20087;-91
2023/08/21 05:21:41;;;;;;;6.63;3.20;;;;;;;;;;5038479;28;20025;-91
2023/08/21 05:24:07;;;;;;;9.18;3.47;;;;;;;;;;5032910;28;20505;-92
2023/08/21 05:26:33;;;;;;;5.95;3.38;;;;;;;;;;5032766;28;20641;-90
2023/08/21 05:28:59;;;;;;;6.15;3.47;;;;;;;;;;5040165;28;20102;-91
2023/08/21 05:31:25;;;;;;;6.43;3.50;;;;;;;;;;5038628;28;20026;-91
2023/08/21 05:33:51;;;;;;;6.47;3.55;;;;;;;;;;5055662;28;20403;-90
2023/08/21 05:36:17;;;;;;;4.50;3.38;;;;;;;;;;5033673;28;20124;-91
2023/08/21 05:38:43;;;;;;;11.60;3.85;;;22.80;99.90;;;;;;5044672;28;20037;-92
2023/08/21 05:41:09;;;;;;;4.90;2.83;;;;;;;;;;5033999;28;20489;-86
2023/08/21 05:43:35;;;;;;;6.15;3.38;;;;;;;;;;5036409;28;20063;-90
2023/08/21 05:46:01;;;;;;;5.18;3.58;;;;;;;;;;5034964;28;20533;-86
2023/08/21 05:48:26;;;;;;;4.93;3.80;;;23.50;99.90;;;;;;5042619;28;20032;-86
2023/08/21 05:50:52;;;;;;;4.45;3.15;;;23.70;94.60;;;;;;5036815;28;20029;-86
2023/08/21 05:53:19;;;;;;;13.77;3.63;;;;;;;;;;5029843;28;20145;-86
2023/08/21 05:55:45;;;;;;;6.20;2.43;;;;;;;;;;5025418;28;20022;-86
2023/08/21 05:58:11;;;;;;;6.68;3.58;;;;;;;;;;5027971;28;20025;-86
2023/08/21 06:00:38;;;;;;;8.68;3.95;;;24.20;91.80;;;;;;5026625;28;20700;-81
2023/08/21 06:03:04;;;;;;;6.07;3.63;;;;;;;;;;5029114;28;20017;-89
2023/08/21 06:05:31;;;;;;;7.35;3.20;;;;;;;;;;5032964;28;20025;-80
2023/08/21 06:07:57;;;;;;;4.82;3.05;;;;;;;;;;5030701;28;20064;-79
2023/08/21 06:10:23;;;;;;;7.88;4.00;;;;;;;;;;5023088;28;20042;-80
2023/08/21 06:12:50;;;;;;;7.05;3.45;;;;;;;;;;5027610;28;20083;-81
2023/08/21 06:15:16;;;;;;;4.93;3.03;;;;;;;;;;5034528;28;20048;-85
2023/08/21 06:17:42;;;;;;;3.58;2.70;;;;;;;;;;5034845;28;20761;-82
2023/08/21 06:20:13;;;;;;;6.18;3.40;;;25.30;86.20;;;;;;5034506;28;20116;-83
2023/08/21 06:22:39;;;;;;;3.83;2.58;;;;;;;;;;5035006;28;20051;-82
2023/08/21 06:25:05;;;;;;;4.75;3.17;;;25.90;87.20;;;;;;5028705;28;21491;-82
2023/08/21 06:27:31;;;;;;;5.47;3.47;;;;;;;;;;5036331;28;20024;-83
2023/08/21 06:29:57;;;;;;;5.22;3.10;;;;;;;;;;5036314;28;20018;-83
2023/08/21 06:32:24;;;;;;;5.28;3.15;;;;;;;;;;5038363;28;20021;-83
2023/08/21 06:34:50;;;;;;;5.57;3.10;;;;;;;;;;5042647;28;20045;-82
2023/08/21 06:37:16;;;;;;;6.50;3.63;;;;;;;;;;5037311;28;20029;-82
2023/08/21 06:39:42;;;;;;;10.10;3.80;;;;;;;;;;5032106;28;20117;-82
2023/08/21 06:42:08;;;;;;;4.82;2.85;;;;;;;;;;5034086;28;20594;-82
2023/08/21 06:44:34;;;;;;;4.50;2.80;;;;;;;;;;5032662;28;20029;-82
2023/08/21 06:47:01;;;;;;;7.68;5.18;;;;;;;;;;5017160;28;20034;-88
2023/08/21 06:49:27;;;;;;;3.72;2.78;;;;;;;;;;5031258;28;20021;-90
2023/08/21 06:51:53;;;;;;;5.70;3.80;;;;;;;;;;5040817;28;20680;-89
2023/08/21 06:54:26;;;;;;;5.17;2.93;;;;;;;;;;5047023;28;20113;-91
2023/08/21 06:56:52;;;;;;;4.40;2.72;;;;;;;;;;5045932;28;20021;-90
2023/08/21 06:59:18;;;;;;;4.63;2.67;;;;;;;;;;5040908;28;20078;-88
2023/08/21 07:01:44;;;;;;;5.43;2.97;;;;;;;;;;5039012;28;20279;-91
2023/08/21 07:04:10;;;;;;;4.27;2.80;;;;;;;;;;5028529;28;20059;-91
2023/08/21 07:06:36;;;;;;;6.17;3.07;;;;;;;;;;5032644;28;20748;-89
2023/08/21 07:09:02;;;;;;;5.20;3.65;;;;;;;;;;5024314;28;20040;-89
2023/08/21 07:11:28;;;;;;;3.28;2.53;;;;;;;;;;5045858;28;20042;-88
2023/08/21 07:13:54;;;;;;;3.15;2.83;;;;;;;;;;5030574;28;20574;-88
2023/08/21 07:16:20;;;;;;;3.80;2.80;;;;;;;;;;5039855;28;20061;-83
2023/08/21 07:18:46;;;;;;;5.65;3.28;;;;;;;;;;5025705;28;20045;-83
2023/08/21 07:21:12;;;;;;;4.63;2.72;;;;;;;;;;5034844;28;20543;-89
2023/08/21 07:23:38;;;;;;;4.25;2.50;;;;;;;;;;5052627;28;20075;-89
2023/08/21 07:26:06;;;;;;;;;;;47.80;32.10;;;;;;5029059;28;20026;-87
2023/08/21 07:28:33;;;;;;;2.80;2.00;;;;;;;;;;5029842;28;20916;-88
2023/08/21 07:30:58;;;;;;;;;;;46.90;33.80;;;;;;5049332;28;20115;-87
2023/08/21 07:33:28;;;;;;;2.97;2.08;;;;;;;;;;5036322;28;20067;-89
2023/08/21 07:36:19;;;;;;;5.97;2.33;;;51.40;30.20;;;;;;5037972;28;20025;-87
2023/08/21 07:38:45;;;;;;;3.28;2.55;;;;;;;;;;5030163;28;20037;-89
2023/08/21 07:41:12;;;;;;;2.67;2.33;;;54.70;28.30;;;;;;5035000;28;20520;-89
2023/08/21 07:43:41;;;;;;;4.93;2.20;;;55.50;27.70;;;;;;5034095;28;20497;-90
2023/08/21 07:46:09;;;;;;;3.95;1.92;;;55.80;26.80;;;;;;5029239;28;20080;-90
2023/08/21 07:48:35;;;;;;;3.05;2.75;;;56.30;26.80;;;;;;5025341;28;20021;-90
2023/08/21 07:51:02;;;;;;;4.88;2.35;;;;;;;;;;5041698;28;20020;-90
2023/08/21 07:53:28;;;;;;;5.65;2.15;;;;;;;;;;5033712;28;20520;-90
2023/08/21 07:55:53;;;;;;;2.60;2.10;;;58.30;29.20;;;;;;5038964;28;20105;-94
2023/08/21 07:58:19;;;;;;;4.13;2.50;;;;;;;;;;5035528;28;20111;-89
2023/08/21 08:00:45;;;;;;;2.40;2.17;;;57.90;29.00;;;;;;5030860;28;20033;-89
2023/08/21 08:03:14;;;;;;;2.58;2.38;;;;;;;;;;5031936;28;20711;-87
2023/08/21 08:05:40;;;;;;;4.57;2.53;;;;;;;;;;5023061;28;20140;-88
2023/08/21 08:08:06;;;;;;;3.10;2.80;;;;;;;;;;5035311;28;20021;-88
2023/08/21 08:10:32;;;;;;;4.43;2.63;;;;;;;;;;5039369;28;20441;-89
2023/08/21 08:12:58;;;;;;;3.95;2.80;;;;;;;;;;5053097;28;20036;-89
2023/08/21 08:15:24;;;;;;;9.52;2.80;;;;;;;;;;5033683;28;20083;-89
2023/08/21 08:17:52;;;;;;;6.63;3.00;;;;;;;;;;5035928;28;20029;-92
2023/08/21 08:20:18;;;;;;;3.88;2.97;;;;;;;;;;5033659;28;20044;-90
2023/08/21 08:22:44;;;;;;;10.32;3.90;;;;;;;;;;5037577;28;20105;-91
2023/08/21 08:25:10;;;;;;;5.35;2.88;;;;;;;;;;5039935;28;20064;-94
2023/08/21 08:27:36;;;;;;;3.95;3.50;;;;;;;;;;5044416;28;20024;-93
2023/08/21 08:30:04;;;;;;;7.38;3.20;;;61.90;23.00;;;;;;5031403;28;20037;-90
2023/08/21 08:32:30;;;;;;;5.18;3.25;;;;;;;;;;5043647;28;20064;-92
2023/08/21 08:34:56;;;;;;;4.25;3.15;;;;;;;;;;5052420;28;20086;-87
2023/08/21 08:37:22;;;;;;;4.43;3.63;;;;;;;;;;5034346;28;20035;-85
2023/08/21 08:39:48;;;;;;;4.78;3.30;;;;;;;;;;5037156;28;20045;-93
2023/08/21 08:42:14;;;;;;;3.50;3.20;;;;;;;;;;5052540;28;20070;-91
2023/08/21 08:44:41;;;;;;;3.78;3.45;;;;;;;;;;5045055;28;20034;-83
2023/08/21 08:47:07;;;;;;;4.95;3.92;;;;;;;;;;5042135;28;20021;-85
2023/08/21 08:49:33;;;;;;;4.60;3.70;;;;;;;;;;5040700;28;20034;-83
2023/08/21 08:52:00;;;;;;;4.88;4.45;;;;;;;;;;5042226;28;20021;-84
2023/08/21 08:54:27;;;;;;;5.05;4.50;;;64.40;22.00;;;;;;5043919;28;20234;-83
2023/08/21 08:56:53;;;;;;;6.25;4.22;;;;;;;;;;5042718;28;20398;-83
2023/08/21 08:59:19;;;;;;;6.10;4.47;;;;;;;;;;5043257;28;20120;-82
2023/08/21 09:01:45;;;;;;;5.13;4.15;;;;;;;;;;5044142;28;20028;-84
2023/08/21 09:04:12;;;;;;;4.45;4.07;;;;;;;;;;5060815;28;20058;-86
2023/08/21 09:06:38;;;;;;;4.75;4.45;;;;;;;;;;5040083;28;20052;-83
2023/08/21 09:09:04;;;;;;;6.13;5.00;;;;;;;;;;5039855;28;20056;-85
2023/08/21 09:11:30;;;;;;;4.40;4.10;;;;;;;;;;5039145;28;20489;-86
2023/08/21 09:13:56;;;;;;;5.32;4.82;;;;;;;;;;5039004;28;20086;-86
2023/08/21 09:16:25;;;;;;;4.55;4.25;;;66.80;21.50;;;;;;5029454;28;20042;-83
2023/08/21 09:18:52;;;;;;;5.10;4.68;;;;;;;;;;5027910;28;20129;-83
2023/08/21 09:21:23;;;;;;;4.85;4.40;;;67.30;21.30;;;;;;5028914;28;20029;-83
2023/08/21 09:23:56;;;;;;;5.30;4.82;;;66.00;21.00;;;;;;5028836;28;20025;-83
2023/08/21 09:26:23;;;;;;;4.50;4.20;;;;;;;;;;5029275;28;20041;-82
2023/08/21 09:28:49;;;;;;;5.00;4.45;;;;;;;;;;5029534;28;20486;-84
2023/08/21 09:31:16;;;;;;;4.35;4.05;;;;;;;;;;5030360;28;20021;-84
2023/08/21 09:33:42;;;;;;;4.43;4.03;;;;;;;;;;5029169;28;20049;-83
2023/08/21 09:36:11;;;;;;;5.05;4.75;;;67.00;21.20;;;;;;5035465;28;20025;-83
2023/08/21 09:38:40;;;;;;;7.68;4.47;;;66.20;24.70;;;;;;5042404;28;20075;-93
2023/08/21 09:41:11;;;;;;;4.35;4.10;;;;;;;;;;5029027;28;20446;-95
2023/08/21 09:43:42;;;;;;;7.03;4.18;;;65.90;20.80;;;;;;5055822;28;20045;-94
2023/08/21 09:46:08;;;;;;;4.90;4.50;;;;;;;;;;5045843;28;20036;-96
2023/08/21 09:48:35;;;;;;;8.88;3.60;;;64.60;20.80;;;;;;5045279;28;20022;-96
2023/08/21 09:51:04;;;;;;;4.25;3.90;;;;;;;;;;5057340;28;20029;-92
2023/08/21 09:53:30;;;;;;;4.45;3.50;;;;;;;;;;5045808;28;20033;-93
2023/08/21 09:55:56;;;;;;;4.05;3.65;;;;;;;;;;5062938;28;20028;-90
2023/08/21 09:58:22;;;;;;;3.75;3.55;;;;;;;;;;5049060;28;20033;-95
2023/08/21 10:00:49;;;;;;;3.58;3.10;;;63.90;20.90;;;;;;5034054;28;20498;-82
2023/08/21 10:03:20;;;;;;;3.83;3.55;;;64.30;21.00;;;;;;5041395;28;20022;-86
2023/08/21 10:05:47;;;;;;;7.15;3.10;;;65.50;21.00;;;;;;5032842;28;20033;-85
2023/08/21 10:08:15;;;;;;;5.53;3.00;;;66.30;20.90;;;;;;5035746;28;20025;-90
2023/08/21 10:10:41;;;;;;;14.38;4.20;;;;;;;;;;5037807;28;20060;-87
2023/08/21 10:13:08;;;;;;;4.07;2.75;;;;;;;;;;5038691;28;20029;-88
2023/08/21 10:15:34;;;;;;;3.05;2.83;;;;;;;;;;5057523;28;20033;-86
2023/08/21 10:18:31;;;;;;;6.65;3.15;;;67.00;20.50;;;;;;5050931;28;20042;-86
2023/08/21 10:20:57;;;;;;;3.17;2.97;;;;;;;;;;5026103;28;20506;-89
2023/08/21 10:23:30;;;;;;;3.65;3.35;;;67.00;20.30;;;;;;5038201;28;20386;-88
2023/08/21 10:26:01;;;;;;;4.25;3.20;;;66.90;20.10;;;;;;5045785;28;21168;-87
2023/08/21 10:28:53;;;;;;;3.63;3.35;;;66.90;20.20;;;;;;5037322;28;20400;-88
2023/08/21 10:31:39;;;;;;;4.82;4.38;;;66.70;20.40;;;;;;5036836;28;20104;-88
2023/08/21 10:34:15;;;;;;;3.33;3.13;;;67.20;26.20;;;;;;5026878;28;20409;-88
2023/08/21 10:36:43;;;;;;;5.93;3.40;;;67.10;20.40;;;;;;5029028;28;20025;-88
2023/08/21 10:39:17;;;;;;;5.18;3.15;;;67.00;21.20;;;;;;5044494;28;20174;-88
2023/08/21 10:41:53;;;;;;;3.53;3.30;;;66.70;20.40;;;;;;5028147;28;20029;-88
2023/08/21 10:44:34;;;;;;;6.28;3.80;;;66.70;20.40;;;;;;5027234;28;20029;-88
2023/08/21 10:47:23;;;;;;;6.38;3.38;;;67.00;20.30;;;;;;5028867;28;20021;-87
2023/08/21 10:49:57;;;;;;;10.30;3.78;;;66.70;20.40;;;;;;5042363;28;20037;-87
2023/08/21 10:52:23;;;;;;;;;;;66.80;20.80;;;;;;5028861;28;20030;-89
2023/08/21 10:54:52;;;;;;;5.93;3.38;;;66.20;20.20;;;;;;5062330;28;19909;-87
2023/08/21 10:57:18;;;;;;;3.95;3.40;;;;;;;;;;5034118;28;20448;-87
2023/08/21 10:59:55;;;;;;;3.42;2.90;;;64.60;20.90;;;;;;5032902;28;20038;-88
2023/08/21 11:02:21;;;;;;;2.88;2.67;;;;;;;;;;5028438;28;20022;-89
2023/08/21 11:04:47;;;;;;;3.20;2.90;;;;;;;;;;5037806;28;20068;-87
2023/08/21 11:07:13;;;;;;;2.78;2.58;;;;;;;;;;5033496;28;20482;-89
2023/08/21 11:09:39;;;;;;;5.18;3.00;;;;;;;;;;5051997;28;20049;-88
2023/08/21 11:12:13;;;;;;;5.18;2.63;;;64.50;20.60;;;;;;5036699;28;20033;-88
2023/08/21 11:14:39;;;;;;;4.05;2.63;;;;;;;;;;5035623;28;20060;-89
2023/08/21 11:17:06;;;;;;;2.78;2.58;;;;;;;;;;5036369;28;20418;-89
2023/08/21 11:19:32;;;;;;;2.95;2.25;;;65.20;20.60;;;;;;5036858;28;20103;-89
2023/08/21 11:22:05;;;;;;;3.67;2.40;;;65.10;20.60;;;;;;5034436;28;20033;-88
2023/08/21 11:24:37;;;;;;;4.82;2.35;;;64.10;20.30;;;;;;5037900;28;20038;-89
2023/08/21 11:27:04;;;;;;;5.25;2.25;;;64.30;20.50;;;;;;5046531;28;20033;-88
2023/08/21 11:29:46;;;;;;;4.68;2.30;;;64.50;22.90;;;;;;5030987;28;20040;-87
2023/08/21 11:32:17;;;;;;;3.60;1.88;;;63.80;20.20;;;;;;5048922;28;20520;-88
2023/08/21 11:34:47;;;;;;;2.70;1.90;;;63.60;20.40;;;;;;5038796;28;20457;-86
2023/08/21 11:37:13;;;;;;;4.78;2.08;;;;;;;;;;5048229;28;20032;-88
2023/08/21 11:39:53;;;;;;;4.03;2.85;;;60.10;20.60;;;;;;5047382;28;20045;-87
2023/08/21 11:42:20;;;;;;;2.30;1.80;;;56.60;21.40;;;;;;5047718;28;20067;-87
2023/08/21 11:44:50;;;;;;;3.55;1.33;;;53.10;22.40;;;;;;5048761;28;20439;-84
2023/08/21 11:47:17;;;;;;;2.67;1.67;;;49.80;23.80;;;;;;5046425;28;20401;-85
2023/08/21 11:49:44;;;;;;;3.80;2.22;;;47.20;25.10;;;;;;5036245;28;20033;-84
2023/08/21 11:52:11;;;;;;;2.78;1.70;;;;;;;;;;5038392;28;20025;-83
2023/08/21 11:54:40;;;;;;;3.15;1.42;;;44.30;27.40;;;;;;5035280;28;20029;-83
2023/08/21 11:57:13;;;;;;;3.47;2.00;;;43.80;28.20;;;;;;5035575;28;20494;-82
2023/08/21 11:59:39;;;;;;;4.78;1.67;;;;;;;;;;5035045;28;20124;-83
2023/08/21 12:02:16;;;;;;;6.47;1.67;;;42.00;37.60;;;;;;5033814;28;20021;-83
2023/08/21 12:04:43;;;;;;;2.30;1.67;;;;;;;;;;5049880;28;20103;-83
2023/08/21 12:07:09;;;;;;;5.20;1.75;;;;;;;;;;5048394;28;20064;-88
2023/08/21 12:09:34;;;;;;;;;;;41.30;30.40;;;;;;5052834;28;20029;-88
2023/08/21 12:12:00;;;;;;;5.85;1.88;;;;;;;;;;5050816;28;19908;-88
2023/08/21 12:14:27;;;;;;;;;;;40.40;31.60;;;;;;5046064;28;20037;-86
2023/08/21 12:16:54;;;;;;;4.70;2.10;;;;;;;;;;5031630;28;19909;-87
2023/08/21 12:19:21;;;;;;;2.15;1.85;;;;;;;;;;5042652;28;20082;-90
2023/08/21 12:21:47;;;;;;;3.28;1.70;;;;;;;;;;5029713;28;20021;-90
2023/08/21 12:24:13;;;;;;;6.10;1.80;;;;;;;;;;5042848;28;20029;-88
2023/08/21 12:26:39;;;;;;;3.75;1.80;;;;;;;;;;5038721;28;20128;-87
2023/08/21 12:29:05;;;;;;;3.47;1.98;;;;;;;;;;5047780;28;20115;-85
2023/08/21 12:31:31;;;;;;;4.00;2.03;;;;;;;;;;5045819;28;20029;-86
2023/08/21 12:33:57;;;;;;;2.97;1.67;;;;;;;;;;5047543;28;20072;-87
2023/08/21 12:36:24;;;;;;;4.88;1.95;;;;;;;;;;5043665;28;20375;-86
2023/08/21 12:38:50;;;;;;;3.05;2.20;;;;;;;;;;5037413;28;20036;-87
2023/08/21 12:41:16;;;;;;;11.15;2.13;;;;;;;;;;5047723;28;20025;-87
2023/08/21 12:43:42;;;;;;;4.18;2.10;;;;;;;;;;5030768;28;20128;-86
2023/08/21 12:46:08;;;;;;;5.18;2.40;;;;;;;;;;5063809;28;20450;-86
2023/08/21 12:48:34;;;;;;;3.03;2.08;;;;;;;;;;5048547;28;20021;-87
2023/08/21 12:51:00;;;;;;;2.95;1.63;;;;;;;;;;5036312;28;20025;-82
2023/08/21 12:53:26;;;;;;;3.97;1.77;;;;;;;;;;5038959;28;20025;-83
2023/08/21 12:55:52;;;;;;;9.40;2.33;;;;;;;;;;5040883;28;20075;-84
2023/08/21 12:58:18;;;;;;;4.63;2.72;;;;;;;;;;5043267;28;20024;-87
2023/08/21 13:00:44;;;;;;;3.85;1.90;;;;;;;;;;5030153;28;20029;-81
2023/08/21 13:03:10;;;;;;;3.13;1.50;;;;;;;;;;5031824;28;20113;-82
2023/08/21 13:05:36;;;;;;;3.15;1.90;;;;;;;;;;5030884;28;20087;-82
2023/08/21 13:08:03;;;;;;;3.92;2.10;;;;;;;;;;5032061;28;20125;-81
2023/08/21 13:10:29;;;;;;;5.57;1.80;;;;;;;;;;5030990;28;20026;-83
2023/08/21 13:12:55;;;;;;;3.20;2.53;;;;;;;;;;5030803;28;20505;-85
2023/08/21 13:15:21;;;;;;;6.20;2.53;;;;;;;;;;5018291;28;20120;-84
2023/08/21 13:17:47;;;;;;;5.05;2.00;;;;;;;;;;5031345;28;20108;-86
2023/08/21 13:20:13;;;;;;;5.82;1.95;;;;;;;;;;5030884;28;20064;-85
2023/08/21 13:22:50;;;;;;;3.80;2.13;;;38.40;45.30;;;;;;5031250;28;20680;-87
2023/08/21 13:25:17;;;;;;;2.78;1.83;;;;;;;;;;5030815;28;20033;-87
2023/08/21 13:27:43;;;;;;;2.30;1.80;;;38.40;35.00;;;;;;5031329;28;20025;-90
2023/08/21 13:30:09;;;;;;;1.95;1.17;;;;;;;;;;5031736;28;20132;-83
2023/08/21 13:32:35;;;;;;;;;;;38.50;34.00;;;;;;5029931;28;20163;-84
2023/08/21 13:35:00;;;;;;;;;;;38.30;33.00;;;;;;5029038;28;20433;-84
2023/08/21 13:37:27;;;;;;;0.87;0.77;;;;;;;;;;5062945;28;20376;-82
2023/08/21 13:39:54;;;;;;;2.50;1.67;;;;;;;;;;5039402;28;20048;-81
2023/08/21 13:42:21;;;;;;;3.55;1.63;;;;;;;;;;5040948;28;20100;-82
2023/08/21 13:44:46;;;;;;;10.75;1.73;;;;;;;;;;5043830;28;20387;-84
2023/08/21 13:47:12;;;;;;;8.50;2.63;;;;;;;;;;5030083;28;20060;-84
2023/08/21 13:49:38;;;;;;;4.30;2.05;;;;;;;;;;5048446;28;20067;-85
2023/08/21 13:52:04;;;;;;;2.08;1.63;;;;;;;;;;5045282;28;20036;-82
2023/08/21 13:54:30;;;;;;;4.50;2.05;;;;;;;;;;5031932;28;20402;-84
2023/08/21 13:56:57;;;;;;;4.38;2.40;;;;;;;;;;5036647;28;20024;-83
2023/08/21 13:59:23;;;;;;;3.85;1.92;;;;;;;;;;5032111;28;20837;-83
2023/08/21 14:01:49;;;;;;;5.88;3.70;;;;;;;;;;5028241;28;20108;-82
2023/08/21 14:04:15;;;;;;;8.75;2.28;;;;;;;;;;5028586;28;20065;-85
2023/08/21 14:06:41;;;;;;;3.35;1.95;;;;;;;;;;5028608;28;20064;-86
2023/08/21 14:09:07;;;;;;;4.70;2.10;;;;;;;;;;5027972;28;20030;-84